Time;durP1;ratioP1;P1;durP2;ratioP2;P2;SDS_P1;SDS_P2;PMS_P1;PMS_P2;Temp;Humidity;BMP_temperature;BMP_pressure;BME280_temperature;BME280_humidity;BME280_pressure;Samples;Min_cycle;Max_cycle;Signal;HPM_P1;HPM_P2
2022/09/04 00:02:12;;;;;;;13.05;7.72;;;13.10;99.90;;;;;;4998621;28;20054;-54
2022/09/04 00:05:13;;;;;;;34.25;22.88;;;13.20;99.90;;;;;;5010472;28;20037;-53
2022/09/04 00:08:15;;;;;;;12.85;7.93;;;13.20;99.90;;;;;;4997073;28;20056;-53
2022/09/04 00:11:10;;;;;;;12.80;7.53;;;13.20;99.90;;;;;;5010508;28;20057;-53
2022/09/04 00:13:48;;;;;;;11.20;6.82;;;13.10;99.90;;;;;;5000955;28;20125;-53
2022/09/04 00:16:42;;;;;;;12.48;7.15;;;13.00;99.90;;;;;;4979042;28;20038;-53
2022/09/04 00:19:42;;;;;;;11.60;7.55;;;12.90;99.90;;;;;;4977446;28;20050;-53
2022/09/04 00:22:27;;;;;;;;;;;12.90;99.90;;;;;;4980258;28;20034;-54
2022/09/04 00:25:28;;;;;;;12.77;7.68;;;12.90;99.90;;;;;;4980204;28;19913;-53
2022/09/04 00:28:05;;;;;;;11.18;7.00;;;12.80;99.90;;;;;;4977140;28;20039;-53
2022/09/04 00:30:35;;;;;;;12.15;7.43;;;12.70;99.90;;;;;;4979552;28;20114;-54
2022/09/04 00:33:07;;;;;;;12.43;7.78;;;12.80;99.90;;;;;;4978853;28;20053;-53
2022/09/04 00:35:54;;;;;;;13.18;6.93;;;12.80;99.90;;;;;;4978868;28;20057;-53
2022/09/04 00:38:54;;;;;;;12.85;7.57;;;12.80;99.90;;;;;;4976560;28;20106;-53
2022/09/04 00:41:22;;;;;;;;;;;12.80;99.90;;;;;;4961923;28;20026;-53
2022/09/04 00:44:26;;;;;;;12.98;7.20;;;12.70;99.90;;;;;;4960109;28;19910;-53
2022/09/04 00:47:38;;;;;;;13.43;7.50;;;12.80;99.90;;;;;;4940379;28;20533;-53
2022/09/04 00:50:25;;;;;;;11.45;7.35;;;12.70;99.90;;;;;;4959693;28;20023;-54
2022/09/04 00:53:13;;;;;;;10.40;6.65;;;12.80;99.90;;;;;;4960531;28;20039;-52
2022/09/04 00:55:45;;;;;;;;;;;12.80;99.90;;;;;;4930817;28;20039;-54
2022/09/04 00:58:39;;;;;;;9.77;6.65;;;12.70;99.90;;;;;;4960286;28;19961;-53
2022/09/04 01:01:05;;;;;;;11.15;6.78;;;12.80;99.90;;;;;;4959471;28;20648;-53
2022/09/04 01:03:48;;;;;;;14.52;7.65;;;12.90;99.90;;;;;;4942487;28;20031;-53
2022/09/04 01:06:53;;;;;;;12.13;6.97;;;12.90;99.90;;;;;;4960935;28;20379;-54
2022/09/04 01:09:51;;;;;;;9.45;6.28;;;12.90;99.90;;;;;;4960658;28;20018;-52
2022/09/04 01:12:37;;;;;;;13.15;6.88;;;12.90;99.90;;;;;;4940053;28;20111;-53
2022/09/04 01:15:26;;;;;;;9.07;6.10;;;12.90;99.90;;;;;;4960789;28;20142;-54
2022/09/04 01:17:56;;;;;;;10.75;6.65;;;12.90;99.90;;;;;;4953217;28;20035;-53
2022/09/04 01:20:54;;;;;;;11.70;6.80;;;12.90;99.90;;;;;;4960878;28;20023;-54
2022/09/04 01:23:43;;;;;;;11.75;6.93;;;12.90;99.90;;;;;;4909044;28;20433;-53
2022/09/04 01:26:36;;;;;;;10.93;7.47;;;12.90;99.90;;;;;;4947431;28;20042;-52
2022/09/04 01:29:20;;;;;;;10.60;6.82;;;12.90;99.90;;;;;;4957797;28;20026;-54
2022/09/04 01:32:13;;;;;;;13.00;8.13;;;12.90;99.90;;;;;;4942790;28;20023;-53
2022/09/04 01:35:16;;;;;;;13.50;7.05;;;12.90;99.90;;;;;;4970171;28;20035;-54
2022/09/04 01:38:05;;;;;;;13.30;7.82;;;12.80;99.90;;;;;;4970239;28;20038;-54
2022/09/04 01:41:07;;;;;;;11.32;7.28;;;12.90;99.90;;;;;;4970200;28;20035;-54
2022/09/04 01:43:33;;;;;;;9.90;6.72;;;12.90;99.90;;;;;;4971997;28;20027;-53
2022/09/04 01:46:25;;;;;;;13.57;8.70;;;12.90;99.90;;;;;;4974312;28;20023;-53
2022/09/04 01:49:27;;;;;;;16.75;8.77;;;12.90;99.90;;;;;;4974355;28;20054;-54
2022/09/04 01:51:59;;;;;;;11.40;7.40;;;12.90;99.90;;;;;;4954551;28;20038;-54
2022/09/04 01:54:50;;;;;;;11.40;7.88;;;12.90;99.90;;;;;;4974127;28;20101;-54
2022/09/04 01:57:54;;;;;;;18.02;9.25;;;12.90;99.90;;;;;;4974082;28;20019;-54
2022/09/04 02:00:22;;;;;;;11.98;8.38;;;12.90;99.90;;;;;;4954048;28;20509;-54
2022/09/04 02:03:17;;;;;;;11.57;7.60;;;12.90;99.90;;;;;;4974071;28;20030;-54
2022/09/04 02:06:23;;;;;;;12.35;8.10;;;12.90;99.90;;;;;;4974452;28;20391;-54
2022/09/04 02:08:55;;;;;;;11.95;8.32;;;13.00;99.90;;;;;;4973896;28;20027;-54
2022/09/04 02:11:25;;;;;;;9.68;7.22;;;13.00;99.90;;;;;;4973835;28;20078;-54
2022/09/04 02:14:07;;;;;;;11.50;7.70;;;13.00;99.90;;;;;;4973565;28;20038;-54
2022/09/04 02:17:13;;;;;;;11.55;8.05;;;13.00;99.90;;;;;;4972870;28;20487;-54
2022/09/04 02:19:57;;;;;;;14.18;8.32;;;13.10;99.90;;;;;;4973857;28;20031;-54
2022/09/04 02:22:42;;;;;;;11.27;7.22;;;13.10;99.90;;;;;;4974452;28;20026;-55
2022/09/04 02:25:23;;;;;;;13.50;8.43;;;13.10;99.90;;;;;;4974242;28;20027;-53
2022/09/04 02:28:22;;;;;;;10.48;7.68;;;13.20;99.90;;;;;;4973695;28;20031;-54
2022/09/04 02:31:17;;;;;;;11.48;8.23;;;13.10;99.90;;;;;;4973741;28;20034;-54
2022/09/04 02:33:46;;;;;;;12.45;7.60;;;13.10;99.90;;;;;;4973636;28;20039;-53
2022/09/04 02:36:31;;;;;;;12.68;8.77;;;13.10;99.90;;;;;;4973641;28;20085;-54
2022/09/04 02:39:12;;;;;;;12.90;8.45;;;13.10;99.90;;;;;;4980427;28;20054;-54
2022/09/04 02:42:04;;;;;;;13.10;8.27;;;13.00;99.90;;;;;;4992924;28;20076;-54
2022/09/04 02:44:43;;;;;;;13.35;9.40;;;13.10;99.90;;;;;;4984605;28;20038;-54
2022/09/04 02:47:48;;;;;;;11.95;8.30;;;13.00;99.90;;;;;;4993036;28;20091;-54
2022/09/04 02:50:28;;;;;;;11.70;8.32;;;13.00;99.90;;;;;;4992013;28;20102;-54
2022/09/04 02:53:18;;;;;;;15.07;9.07;;;13.00;99.90;;;;;;4992309;28;20461;-54
2022/09/04 02:56:30;;;;;;;11.80;7.60;;;13.10;99.90;;;;;;4992910;28;20482;-54
2022/09/04 02:59:20;;;;;;;11.70;8.05;;;13.10;99.90;;;;;;4992771;28;20042;-54
2022/09/04 03:01:50;;;;;;;11.90;8.45;;;13.10;99.90;;;;;;4992626;28;20026;-54
2022/09/04 03:04:31;;;;;;;12.43;8.85;;;13.10;99.90;;;;;;4974704;28;20085;-54
2022/09/04 03:07:30;;;;;;;13.15;8.70;;;13.10;99.90;;;;;;4992283;28;20095;-54
2022/09/04 03:10:08;;;;;;;12.63;8.60;;;13.10;99.90;;;;;;4992562;28;20030;-53
2022/09/04 03:12:44;;;;;;;10.43;8.13;;;13.20;99.90;;;;;;4992263;28;20120;-54
2022/09/04 03:15:16;;;;;;;12.00;8.38;;;13.20;99.90;;;;;;4992672;28;20173;-54
2022/09/04 03:18:08;;;;;;;18.27;9.07;;;13.20;99.90;;;;;;4992413;28;20037;-53
2022/09/04 03:20:45;;;;;;;10.80;8.32;;;13.20;99.90;;;;;;4945013;28;20035;-54
2022/09/04 03:23:13;;;;;;;11.90;8.47;;;13.20;99.90;;;;;;4992469;28;20141;-53
2022/09/04 03:26:04;;;;;;;12.32;7.97;;;13.20;99.90;;;;;;4992098;28;20490;-54
2022/09/04 03:28:50;;;;;;;13.05;8.93;;;13.20;99.90;;;;;;4991957;28;20038;-54
2022/09/04 03:31:47;;;;;;;11.10;8.63;;;13.20;99.90;;;;;;4992145;28;20038;-54
2022/09/04 03:34:47;;;;;;;11.57;8.30;;;13.10;99.90;;;;;;4992081;28;20085;-54
2022/09/04 03:37:43;;;;;;;14.25;9.30;;;13.10;99.90;;;;;;4992419;28;20080;-54
2022/09/04 03:40:16;;;;;;;11.77;8.77;;;13.10;99.90;;;;;;4991590;28;20137;-57
2022/09/04 03:42:48;;;;;;;12.63;8.38;;;13.10;99.90;;;;;;4991480;28;20030;-54
2022/09/04 03:45:32;;;;;;;14.93;9.00;;;13.10;99.90;;;;;;4991854;28;20027;-54
2022/09/04 03:48:35;;;;;;;14.40;8.48;;;13.10;99.90;;;;;;4991784;28;20034;-54
2022/09/04 03:51:09;;;;;;;9.80;7.18;;;13.10;99.90;;;;;;4991590;28;20050;-54
2022/09/04 03:53:55;;;;;;;10.90;7.65;;;13.00;99.90;;;;;;4991653;28;20047;-54
2022/09/04 03:56:39;;;;;;;11.23;8.32;;;13.00;99.90;;;;;;4991737;28;20018;-53
2022/09/04 03:59:07;;;;;;;11.80;7.85;;;13.10;99.90;;;;;;4991877;28;20042;-54
2022/09/04 04:01:52;;;;;;;11.65;8.75;;;13.10;99.90;;;;;;4991065;28;20038;-54
2022/09/04 04:04:34;;;;;;;13.60;7.78;;;13.10;99.90;;;;;;4989662;28;20057;-53
2022/09/04 04:07:15;;;;;;;10.25;7.53;;;13.10;99.90;;;;;;4980337;28;20054;-54
2022/09/04 04:10:05;;;;;;;12.98;8.02;;;13.10;99.90;;;;;;4980346;28;20118;-53
2022/09/04 04:12:51;;;;;;;17.15;8.77;;;13.20;99.90;;;;;;4981210;28;20031;-54
2022/09/04 04:15:41;;;;;;;11.05;7.53;;;13.10;99.90;;;;;;4981228;28;20113;-54
2022/09/04 04:18:26;;;;;;;11.18;8.20;;;13.20;99.90;;;;;;4980839;28;20023;-53
2022/09/04 04:21:11;;;;;;;11.07;7.60;;;13.20;99.90;;;;;;4980877;28;20480;-53
2022/09/04 04:24:15;;;;;;;10.02;7.70;;;13.20;99.90;;;;;;4979572;28;20050;-53
2022/09/04 04:26:51;;;;;;;10.93;8.00;;;13.20;99.90;;;;;;4998418;28;20363;-54
2022/09/04 04:29:46;;;;;;;12.07;8.63;;;13.20;99.90;;;;;;4997700;28;20022;-54
2022/09/04 04:32:17;;;;;;;15.30;9.32;;;13.20;99.90;;;;;;4996065;28;20177;-54
2022/09/04 04:35:09;;;;;;;12.25;8.48;;;13.20;99.90;;;;;;4998855;28;20022;-53
2022/09/04 04:38:02;;;;;;;11.32;8.38;;;13.20;99.90;;;;;;4979684;28;20053;-53
2022/09/04 04:40:37;;;;;;;19.85;7.85;;;13.30;99.90;;;;;;4999733;28;20068;-54
2022/09/04 04:43:38;;;;;;;11.52;8.10;;;13.30;99.90;;;;;;5000017;28;20070;-54
2022/09/04 04:46:16;;;;;;;12.80;8.35;;;13.30;99.90;;;;;;4958792;28;20065;-54
2022/09/04 04:48:53;;;;;;;10.45;7.90;;;13.30;99.90;;;;;;4998904;28;20027;-54
2022/09/04 04:51:51;;;;;;;12.90;8.52;;;13.20;99.90;;;;;;4997648;28;20556;-53
2022/09/04 04:54:29;;;;;;;12.45;8.57;;;13.30;99.90;;;;;;4997153;28;20157;-54
2022/09/04 04:57:01;;;;;;;12.30;8.90;;;13.30;99.90;;;;;;4996857;28;20022;-53
2022/09/04 04:59:43;;;;;;;12.18;7.88;;;13.40;99.90;;;;;;4980484;28;20085;-54
2022/09/04 05:02:27;;;;;;;13.48;8.80;;;13.40;99.90;;;;;;4997926;28;20729;-53
2022/09/04 05:05:12;;;;;;;14.57;8.75;;;13.40;99.90;;;;;;4995910;28;20022;-53
2022/09/04 05:07:45;;;;;;;11.10;8.27;;;13.50;99.90;;;;;;4997176;28;20466;-53
2022/09/04 05:10:19;;;;;;;15.00;8.57;;;13.50;99.90;;;;;;4997974;28;20478;-53
2022/09/04 05:13:14;;;;;;;11.25;8.05;;;13.50;99.90;;;;;;4998067;28;20029;-53
2022/09/04 05:16:26;;;;;;;14.05;8.20;;;13.50;99.90;;;;;;4985880;28;20792;-54
2022/09/04 05:19:06;;;;;;;11.73;8.23;;;13.60;99.90;;;;;;4959504;28;20085;-54
2022/09/04 05:22:03;;;;;;;11.45;7.82;;;13.60;99.90;;;;;;4995237;28;20094;-53
2022/09/04 05:25:00;;;;;;;11.70;7.55;;;13.60;99.90;;;;;;4974365;28;20034;-53
2022/09/04 05:27:40;;;;;;;12.43;8.68;;;13.60;99.90;;;;;;4996949;28;20101;-54
2022/09/04 05:30:34;;;;;;;11.63;8.27;;;13.60;99.90;;;;;;4990078;28;20362;-54
2022/09/04 05:33:13;;;;;;;12.02;8.13;;;13.50;99.90;;;;;;4990118;28;20137;-54
2022/09/04 05:35:50;;;;;;;14.43;8.35;;;13.60;99.90;;;;;;4990202;28;20031;-53
2022/09/04 05:38:37;;;;;;;11.75;8.30;;;13.60;99.90;;;;;;4990010;28;20030;-54
2022/09/04 05:41:22;;;;;;;11.93;8.70;;;13.60;99.90;;;;;;4989971;28;20069;-54
2022/09/04 05:44:16;;;;;;;10.98;8.40;;;13.60;99.90;;;;;;4989983;28;20041;-54
2022/09/04 05:46:54;;;;;;;12.85;7.70;;;13.70;99.90;;;;;;4990478;28;20036;-54
2022/09/04 05:49:34;;;;;;;12.02;7.88;;;13.70;99.90;;;;;;4990172;28;20030;-55
2022/09/04 05:52:38;;;;;;;13.82;8.20;;;13.60;99.90;;;;;;4990069;28;20084;-53
2022/09/04 05:55:30;;;;;;;11.73;8.90;;;13.70;99.90;;;;;;4990021;28;20030;-54
2022/09/04 05:58:22;;;;;;;11.65;8.43;;;13.70;99.90;;;;;;4989981;28;20113;-54
2022/09/04 06:00:48;;;;;;;11.45;8.13;;;13.80;99.90;;;;;;4990080;28;20118;-53
2022/09/04 06:03:41;;;;;;;12.68;8.10;;;13.80;99.90;;;;;;4990117;28;20098;-54
2022/09/04 06:06:15;;;;;;;11.10;7.68;;;13.80;99.90;;;;;;4989990;28;20046;-54
2022/09/04 06:09:02;;;;;;;13.75;8.13;;;13.80;99.90;;;;;;4990037;28;20035;-54
2022/09/04 06:11:48;;;;;;;12.80;9.15;;;13.90;99.90;;;;;;4992189;28;20033;-54
2022/09/04 06:14:33;;;;;;;11.60;7.75;;;14.00;99.90;;;;;;4995766;28;20042;-55
2022/09/04 06:16:58;;;;;;;10.30;7.43;;;14.00;99.90;;;;;;4991361;28;20030;-54
2022/09/04 06:19:45;;;;;;;11.02;7.88;;;14.10;99.90;;;;;;4979910;28;20045;-54
2022/09/04 06:22:59;;;;;;;10.50;6.70;;;14.10;99.90;;;;;;4988553;28;20032;-54
2022/09/04 06:25:40;;;;;;;9.57;6.43;;;14.20;99.90;;;;;;4937760;29;20039;-54
2022/09/04 06:28:28;;;;;;;10.68;7.15;;;14.20;99.90;;;;;;4975932;28;20042;-54
2022/09/04 06:31:18;;;;;;;12.38;7.72;;;14.30;99.90;;;;;;4998476;28;20037;-54
2022/09/04 06:34:15;;;;;;;9.98;7.07;;;14.30;99.90;;;;;;5000481;28;20042;-54
2022/09/04 06:37:15;;;;;;;10.90;6.63;;;14.40;99.90;;;;;;4999729;28;20033;-54
2022/09/04 06:40:00;;;;;;;9.55;7.13;;;14.40;99.90;;;;;;5004683;28;20065;-54
2022/09/04 06:42:34;;;;;;;8.50;6.60;;;14.50;99.90;;;;;;5012624;28;20057;-54
2022/09/04 06:45:19;;;;;;;9.30;6.60;;;14.50;99.90;;;;;;5012224;28;20029;-54
2022/09/04 06:48:09;;;;;;;8.98;6.55;;;14.40;99.90;;;;;;5010119;28;20172;-54
2022/09/04 06:50:59;;;;;;;8.80;6.53;;;14.50;99.90;;;;;;5011239;28;20030;-54
2022/09/04 06:53:44;;;;;;;9.82;7.03;;;14.50;99.90;;;;;;5012121;28;20050;-54
2022/09/04 06:56:35;;;;;;;9.43;6.50;;;14.60;99.90;;;;;;5012398;28;20018;-55
2022/09/04 06:59:29;;;;;;;7.68;6.32;;;14.70;99.90;;;;;;4995939;28;20038;-55
2022/09/04 07:02:27;;;;;;;8.65;6.47;;;14.80;99.90;;;;;;5008526;28;20023;-55
2022/09/04 07:05:17;;;;;;;11.55;6.60;;;14.70;99.90;;;;;;5000622;28;20438;-55
2022/09/04 07:08:33;;;;;;;10.45;6.88;;;14.80;99.90;;;;;;4998833;28;20632;-54
2022/09/04 07:11:22;;;;;;;10.85;7.07;;;14.90;99.90;;;;;;4937798;28;20050;-55
2022/09/04 07:13:47;;;;;;;12.70;7.40;;;14.90;99.90;;;;;;4994270;28;20084;-55
2022/09/04 07:16:43;;;;;;;7.95;6.32;;;14.90;99.90;;;;;;5001669;28;20050;-55
2022/09/04 07:19:21;;;;;;;9.10;6.18;;;14.90;99.90;;;;;;4995114;28;20387;-55
2022/09/04 07:22:18;;;;;;;10.90;7.15;;;14.90;99.90;;;;;;4990454;28;20025;-54
2022/09/04 07:25:09;;;;;;;9.90;6.30;;;14.90;99.90;;;;;;4944801;28;20116;-54
2022/09/04 07:28:00;;;;;;;8.43;5.90;;;14.90;99.90;;;;;;4983816;28;20040;-53
2022/09/04 07:30:31;;;;;;;11.13;6.65;;;14.90;99.90;;;;;;4998871;28;20537;-53
2022/09/04 07:33:26;;;;;;;9.50;6.78;;;15.00;99.90;;;;;;4999866;28;20505;-54
2022/09/04 07:36:06;;;;;;;9.40;6.03;;;15.00;99.90;;;;;;4991833;28;20042;-53
2022/09/04 07:38:54;;;;;;;8.95;6.13;;;15.00;99.90;;;;;;5004319;28;20078;-53
2022/09/04 07:41:37;;;;;;;8.70;5.97;;;15.10;99.90;;;;;;4997494;28;20037;-54
2022/09/04 07:44:11;;;;;;;9.98;6.50;;;15.20;99.90;;;;;;4999576;28;20049;-54
2022/09/04 07:46:46;;;;;;;8.45;6.28;;;15.20;99.90;;;;;;4997392;28;20144;-54
2022/09/04 07:49:22;;;;;;;9.73;6.82;;;15.20;99.90;;;;;;5000877;28;20034;-54
2022/09/04 07:51:58;;;;;;;7.97;5.82;;;15.20;99.90;;;;;;4998130;28;20489;-54
2022/09/04 07:54:36;;;;;;;8.18;5.68;;;15.30;99.90;;;;;;4996686;28;20034;-54
2022/09/04 07:57:36;;;;;;;8.63;5.80;;;15.40;99.90;;;;;;4996612;28;20015;-53
2022/09/04 08:00:19;;;;;;;;;;;15.40;99.90;;;;;;5001428;28;20125;-54
2022/09/04 08:02:48;;;;;;;11.27;5.90;;;15.30;99.90;;;;;;4997403;28;19969;-54
2022/09/04 08:05:22;;;;;;;7.40;5.38;;;15.30;99.90;;;;;;4999653;28;20034;-54
2022/09/04 08:08:00;;;;;;;7.47;5.55;;;15.30;99.90;;;;;;4997902;28;20083;-55
2022/09/04 08:10:44;;;;;;;;;;;15.30;99.90;;;;;;4998001;28;20019;-54
2022/09/04 08:13:25;;;;;;;8.57;6.05;;;15.20;99.90;;;;;;4998429;28;19965;-54
2022/09/04 08:16:07;;;;;;;10.68;5.85;;;15.20;99.90;;;;;;4998438;28;20132;-55
2022/09/04 08:18:57;;;;;;;8.80;5.85;;;15.20;99.90;;;;;;4998561;28;20486;-55
2022/09/04 08:21:30;;;;;;;10.00;6.30;;;15.20;99.90;;;;;;4995957;28;20026;-54
2022/09/04 08:24:07;;;;;;;8.10;6.25;;;15.20;99.90;;;;;;4998852;28;20116;-54
2022/09/04 08:27:08;;;;;;;10.60;6.57;;;15.10;99.90;;;;;;4998611;28;20065;-54
2022/09/04 08:29:49;;;;;;;9.82;6.30;;;15.10;99.90;;;;;;4985658;28;20260;-53
2022/09/04 08:32:33;;;;;;;9.00;6.20;;;15.20;99.90;;;;;;4999059;28;20117;-54
2022/09/04 08:35:04;;;;;;;10.65;6.97;;;15.20;99.90;;;;;;4999953;28;20757;-54
2022/09/04 08:37:53;;;;;;;11.18;7.18;;;15.20;99.90;;;;;;4998606;28;20022;-53
2022/09/04 08:40:41;;;;;;;9.30;7.13;;;15.30;99.90;;;;;;4976017;28;20082;-54
2022/09/04 08:43:34;;;;;;;10.75;7.38;;;15.30;99.90;;;;;;4997003;28;20037;-53
2022/09/04 08:46:21;;;;;;;11.07;7.88;;;15.30;99.90;;;;;;4998920;28;20041;-54
2022/09/04 08:48:58;;;;;;;14.80;7.88;;;15.40;99.90;;;;;;4997242;28;20145;-53
2022/09/04 08:51:33;;;;;;;11.52;8.38;;;15.50;99.90;;;;;;4977619;28;20408;-53
2022/09/04 08:54:33;;;;;;;9.27;7.25;;;15.50;99.90;;;;;;4994970;28;20872;-55
2022/09/04 08:57:54;;;;;;;9.93;7.03;;;15.50;99.90;;;;;;4998441;28;20046;-54
2022/09/04 09:00:21;;;;;;;11.45;8.13;;;15.50;99.90;;;;;;4899751;29;20067;-54
2022/09/04 09:03:19;;;;;;;9.65;7.10;;;15.50;99.90;;;;;;4976659;28;20382;-54
2022/09/04 09:06:12;;;;;;;10.73;8.20;;;15.50;99.90;;;;;;4996060;28;20447;-54
2022/09/04 09:09:02;;;;;;;12.35;7.63;;;15.60;99.90;;;;;;4998763;28;20473;-54
2022/09/04 09:11:46;;;;;;;10.55;7.82;;;15.50;99.90;;;;;;4996864;28;20033;-53
2022/09/04 09:14:24;;;;;;;12.13;7.43;;;15.50;99.90;;;;;;4993626;28;20147;-55
2022/09/04 09:17:21;;;;;;;9.48;7.65;;;15.40;99.90;;;;;;4997406;28;20072;-54
2022/09/04 09:20:05;;;;;;;11.05;8.20;;;15.40;99.90;;;;;;4996525;28;20474;-56
2022/09/04 09:23:08;;;;;;;12.85;8.98;;;15.40;99.90;;;;;;4979693;28;20105;-55
2022/09/04 09:26:15;;;;;;;11.30;8.15;;;15.30;99.90;;;;;;4998414;28;20484;-54
2022/09/04 09:29:22;;;;;;;12.35;7.40;;;15.30;99.90;;;;;;4994857;28;20029;-55
2022/09/04 09:32:15;;;;;;;12.82;7.93;;;15.30;99.90;;;;;;4955839;28;20035;-54
2022/09/04 09:35:08;;;;;;;9.88;7.38;;;15.30;99.90;;;;;;4994062;28;20120;-54
2022/09/04 09:37:55;;;;;;;9.98;7.80;;;15.30;99.90;;;;;;4998048;28;20093;-53
2022/09/04 09:40:59;;;;;;;9.88;7.30;;;15.30;99.90;;;;;;4994249;28;20089;-53
2022/09/04 09:43:59;;;;;;;11.65;7.63;;;15.30;99.90;;;;;;4995281;28;20022;-53
2022/09/04 09:46:35;;;;;;;11.77;8.02;;;15.30;99.90;;;;;;4995736;28;20027;-53
2022/09/04 09:49:22;;;;;;;12.55;7.95;;;15.40;99.90;;;;;;4994817;28;20050;-54
2022/09/04 09:52:06;;;;;;;14.82;9.38;;;15.30;99.90;;;;;;4996097;28;20739;-53
2022/09/04 09:54:50;;;;;;;13.20;9.13;;;15.20;99.90;;;;;;4997395;28;20102;-53
2022/09/04 09:57:34;;;;;;;13.65;9.82;;;15.10;99.90;;;;;;4998390;28;20030;-53
2022/09/04 10:00:17;;;;;;;13.75;10.15;;;15.10;99.90;;;;;;4993748;28;20049;-54
2022/09/04 10:02:48;;;;;;;16.38;11.70;;;15.10;99.90;;;;;;4988704;28;20033;-53
2022/09/04 10:05:38;;;;;;;16.08;11.77;;;15.10;99.90;;;;;;4992779;28;20690;-53
2022/09/04 10:08:22;;;;;;;14.63;10.70;;;15.00;99.90;;;;;;4990582;28;20030;-53
2022/09/04 10:11:04;;;;;;;16.85;11.43;;;15.10;99.90;;;;;;4992471;28;20042;-53
2022/09/04 10:14:03;;;;;;;17.80;12.48;;;15.10;99.90;;;;;;4990890;28;20181;-53
2022/09/04 10:16:36;;;;;;;14.05;11.10;;;15.10;99.90;;;;;;4990603;28;20034;-53
2022/09/04 10:19:23;;;;;;;16.02;11.95;;;15.20;99.90;;;;;;4992596;28;20249;-53
2022/09/04 10:22:22;;;;;;;15.60;11.30;;;15.20;99.90;;;;;;4992131;28;20057;-53
2022/09/04 10:25:06;;;;;;;16.52;11.20;;;15.30;99.90;;;;;;4992147;28;20497;-53
2022/09/04 10:27:53;;;;;;;15.65;11.57;;;15.40;99.90;;;;;;4991293;28;20656;-53
2022/09/04 10:30:22;;;;;;;16.65;11.63;;;15.40;99.90;;;;;;4991491;28;20144;-53
2022/09/04 10:33:26;;;;;;;16.80;12.13;;;15.40;99.90;;;;;;4991936;28;20042;-53
2022/09/04 10:36:02;;;;;;;18.60;11.93;;;15.40;99.90;;;;;;4990426;28;20508;-53
2022/09/04 10:42:05;;;;;;;16.50;12.15;;;15.50;99.90;;;;;;4991910;28;20104;-53
2022/09/04 10:44:48;;;;;;;15.07;10.40;;;15.50;99.90;;;;;;4976122;28;20046;-53
2022/09/04 10:47:30;;;;;;;15.57;11.68;;;15.50;99.90;;;;;;4992160;28;20105;-53
2022/09/04 10:50:29;;;;;;;15.50;10.95;;;15.60;99.90;;;;;;4992015;28;20036;-54
2022/09/04 10:53:10;;;;;;;16.90;12.88;;;15.50;99.90;;;;;;4991363;28;20100;-53
2022/09/04 10:56:02;;;;;;;17.45;12.35;;;15.50;99.90;;;;;;4991353;28;20034;-53
2022/09/04 10:58:46;;;;;;;17.75;12.63;;;15.60;99.90;;;;;;4989899;28;20425;-53
2022/09/04 11:01:20;;;;;;;19.90;13.10;;;15.50;99.90;;;;;;4992793;28;20093;-53
2022/09/04 11:04:12;;;;;;;16.95;11.68;;;15.50;99.90;;;;;;4999580;28;20470;-53
2022/09/04 11:07:23;;;;;;;16.92;11.25;;;15.50;99.90;;;;;;4996777;28;20026;-53
2022/09/04 11:10:12;;;;;;;16.77;12.55;;;15.50;99.90;;;;;;4986051;28;20069;-52
2022/09/04 11:12:56;;;;;;;16.10;12.13;;;15.50;99.90;;;;;;4996567;28;20045;-53
2022/09/04 11:15:46;;;;;;;15.95;11.07;;;15.60;99.90;;;;;;4997396;28;20049;-54
2022/09/04 11:18:44;;;;;;;13.57;10.05;;;15.70;99.90;;;;;;4999758;28;20023;-54
2022/09/04 11:21:29;;;;;;;14.55;10.40;;;15.70;99.90;;;;;;4972152;28;20034;-54
2022/09/04 11:24:20;;;;;;;15.50;10.75;;;15.70;99.90;;;;;;4991732;28;20912;-53
2022/09/04 11:27:15;;;;;;;13.85;10.13;;;15.90;99.90;;;;;;4989573;28;20033;-54
2022/09/04 11:30:05;;;;;;;13.32;9.63;;;15.90;99.90;;;;;;5002018;28;20036;-53
2022/09/04 11:32:52;;;;;;;12.52;9.35;;;15.90;99.90;;;;;;4998975;28;20033;-53
2022/09/04 11:35:32;;;;;;;12.30;9.02;;;16.20;99.90;;;;;;4995637;28;20034;-54
2022/09/04 11:37:58;;;;;;;12.82;8.98;;;16.20;99.90;;;;;;4992230;28;20482;-53
2022/09/04 11:40:48;;;;;;;11.55;8.82;;;16.30;99.90;;;;;;4988859;28;20042;-53
2022/09/04 11:43:45;;;;;;;14.30;8.68;;;16.30;99.90;;;;;;4981238;28;20058;-53
2022/09/04 11:46:32;;;;;;;10.88;8.57;;;16.30;99.90;;;;;;4998871;28;20482;-53
2022/09/04 11:49:16;;;;;;;12.05;8.13;;;16.30;99.90;;;;;;4987147;28;20023;-54
2022/09/04 11:51:59;;;;;;;15.52;10.02;;;16.40;99.90;;;;;;4980128;28;20042;-54
2022/09/04 11:54:54;;;;;;;12.32;8.65;;;16.40;99.90;;;;;;4980089;28;20035;-54
2022/09/04 11:57:35;;;;;;;11.93;8.95;;;16.50;99.90;;;;;;4978150;28;20053;-53
2022/09/04 12:00:19;;;;;;;13.07;8.18;;;16.60;99.90;;;;;;4979702;28;20031;-53
2022/09/04 12:02:55;;;;;;;9.57;6.85;;;16.70;99.90;;;;;;4980126;28;20023;-53
2022/09/04 12:05:43;;;;;;;15.13;9.25;;;16.80;99.90;;;;;;4979844;28;20870;-52
2022/09/04 12:08:27;;;;;;;10.13;6.97;;;16.90;99.90;;;;;;4979564;28;20058;-54
2022/09/04 12:11:34;;;;;;;9.50;6.65;;;17.00;99.90;;;;;;4980207;28;20182;-53
2022/09/04 12:14:19;;;;;;;10.48;7.50;;;17.40;99.90;;;;;;4980812;28;20104;-53
2022/09/04 12:17:00;;;;;;;10.75;6.22;;;17.60;99.90;;;;;;4986163;28;20088;-53
2022/09/04 12:20:15;;;;;;;10.13;6.70;;;17.70;99.90;;;;;;4968605;28;20062;-53
2022/09/04 12:23:18;;;;;;;9.02;6.63;;;17.90;99.90;;;;;;4953129;28;20121;-53
2022/09/04 12:26:02;;;;;;;10.57;6.25;;;18.00;99.90;;;;;;4989773;28;20214;-53
2022/09/04 12:28:40;;;;;;;10.20;6.70;;;18.20;99.90;;;;;;5009343;28;20394;-53
2022/09/04 12:31:23;;;;;;;11.77;7.20;;;18.30;99.90;;;;;;5009663;28;20666;-54
2022/09/04 12:33:52;;;;;;;8.43;5.70;;;18.50;99.90;;;;;;5009689;28;20042;-54
2022/09/04 12:36:51;;;;;;;8.63;6.25;;;18.70;99.90;;;;;;5009257;28;20494;-54
2022/09/04 12:39:51;;;;;;;8.75;6.07;;;19.00;99.90;;;;;;4991821;28;20117;-54
2022/09/04 12:42:40;;;;;;;8.88;5.60;;;19.30;99.90;;;;;;4988579;28;20030;-55
2022/09/04 12:45:29;;;;;;;6.97;5.40;;;19.60;99.90;;;;;;4990983;28;20112;-53
2022/09/04 12:48:12;;;;;;;10.20;6.57;;;20.40;99.90;;;;;;4990064;28;20023;-53
2022/09/04 12:50:57;;;;;;;6.43;5.05;;;20.30;99.90;;;;;;4990264;28;20040;-54
2022/09/04 12:53:42;;;;;;;9.65;5.22;;;20.20;99.90;;;;;;4990519;28;20026;-54
2022/09/04 12:56:14;;;;;;;6.13;4.80;;;20.70;99.90;;;;;;4990613;28;20022;-53
2022/09/04 12:59:06;;;;;;;7.40;4.68;;;21.00;99.90;;;;;;4991351;28;20611;-55
2022/09/04 13:01:48;;;;;;;8.50;4.93;;;21.20;99.90;;;;;;4973015;28;20478;-55
2022/09/04 13:04:31;;;;;;;6.90;5.07;;;21.50;99.90;;;;;;4990898;28;20049;-54
2022/09/04 13:07:05;;;;;;;7.30;5.13;;;21.90;99.90;;;;;;4990791;28;20478;-54
2022/09/04 13:09:56;;;;;;;6.97;4.57;;;22.00;99.90;;;;;;4990611;28;20039;-53
2022/09/04 13:12:48;;;;;;;6.13;4.30;;;22.20;99.90;;;;;;4990545;28;20037;-54
2022/09/04 13:15:39;;;;;;;6.70;3.92;;;21.90;99.90;;;;;;4990651;28;20063;-54
2022/09/04 13:18:24;;;;;;;5.72;4.10;;;22.10;99.90;;;;;;4989972;28;20041;-54
2022/09/04 13:21:24;;;;;;;8.20;4.63;;;21.90;99.90;;;;;;4972339;28;20482;-55
2022/09/04 13:24:20;;;;;;;8.05;3.83;;;21.70;99.90;;;;;;4990483;28;20038;-53
2022/09/04 13:26:56;;;;;;;5.68;4.00;;;22.00;99.90;;;;;;4990668;28;20031;-53
2022/09/04 13:29:40;;;;;;;6.93;4.00;;;22.20;99.90;;;;;;4990247;28;20470;-53
2022/09/04 13:32:18;;;;;;;5.30;3.47;;;22.40;99.90;;;;;;4990226;28;20612;-53
2022/09/04 13:35:30;;;;;;;6.43;4.10;;;22.80;99.90;;;;;;4970670;28;20634;-54
2022/09/04 13:38:08;;;;;;;15.05;10.25;;;22.70;99.90;;;;;;4996206;28;20133;-53
2022/09/04 13:41:15;;;;;;;9.70;4.18;;;22.70;99.90;;;;;;5002577;28;20776;-53
2022/09/04 13:43:58;;;;;;;5.70;3.50;;;22.40;99.90;;;;;;4996244;28;20513;-53
2022/09/04 13:46:28;;;;;;;6.80;4.07;;;22.40;99.90;;;;;;4994276;28;20034;-54
2022/09/04 13:49:21;;;;;;;6.93;4.25;;;22.40;99.90;;;;;;4994059;28;20382;-54
2022/09/04 13:51:59;;;;;;;5.35;3.67;;;22.40;99.90;;;;;;4983836;28;20049;-54
2022/09/04 13:54:51;;;;;;;5.00;3.35;;;22.40;99.90;;;;;;4966832;28;20107;-54
2022/09/04 13:57:20;;;;;;;6.53;3.90;;;22.50;99.90;;;;;;4982789;28;20818;-53
2022/09/04 13:59:48;;;;;;;6.10;3.95;;;22.60;99.90;;;;;;4982222;28;20514;-53
2022/09/04 14:02:23;;;;;;;7.57;3.90;;;22.50;99.90;;;;;;4983836;28;20034;-53
2022/09/04 14:04:53;;;;;;;7.55;4.18;;;22.50;99.90;;;;;;4984158;28;20108;-53
2022/09/04 14:07:30;;;;;;;5.60;3.75;;;22.60;99.90;;;;;;4982669;28;20022;-53
2022/09/04 14:09:59;;;;;;;7.50;4.15;;;22.70;99.90;;;;;;5007115;28;20164;-53
2022/09/04 14:12:37;;;;;;;5.93;3.97;;;22.40;99.90;;;;;;5013040;28;20030;-53
2022/09/04 14:15:08;;;;;;;7.38;4.05;;;22.40;99.90;;;;;;5013270;28;20041;-53
2022/09/04 14:18:00;;;;;;;5.05;3.78;;;22.50;99.90;;;;;;5013291;28;20022;-53
2022/09/04 14:20:39;;;;;;;6.78;4.10;;;22.50;99.90;;;;;;5010592;28;20128;-52
2022/09/04 14:23:13;;;;;;;4.53;3.47;;;22.40;99.90;;;;;;5000455;28;20034;-52